sensor_id;sensor_type;location;lat;lon;timestamp;temperature;humidity
6462;DHT22;3264;42.862;25.098;2023-04-01T00:01:40;6.60;99.90
6462;DHT22;3264;42.862;25.098;2023-04-01T00:04:11;6.60;99.90
6462;DHT22;3264;42.862;25.098;2023-04-01T00:06:40;6.70;99.90
6462;DHT22;3264;42.862;25.098;2023-04-01T00:09:09;6.70;99.90
6462;DHT22;3264;42.862;25.098;2023-04-01T00:11:39;6.80;99.90
6462;DHT22;3264;42.862;25.098;2023-04-01T00:14:08;6.70;99.90
6462;DHT22;3264;42.862;25.098;2023-04-01T00:16:37;6.70;99.90
6462;DHT22;3264;42.862;25.098;2023-04-01T00:19:06;6.70;99.90
6462;DHT22;3264;42.862;25.098;2023-04-01T00:21:37;6.70;99.90
6462;DHT22;3264;42.862;25.098;2023-04-01T00:24:06;6.60;99.90
6462;DHT22;3264;42.862;25.098;2023-04-01T00:26:35;6.60;99.90
6462;DHT22;3264;42.862;25.098;2023-04-01T00:29:04;6.70;99.90
6462;DHT22;3264;42.862;25.098;2023-04-01T00:31:34;6.80;99.90
6462;DHT22;3264;42.862;25.098;2023-04-01T00:34:07;6.90;99.90
6462;DHT22;3264;42.862;25.098;2023-04-01T00:36:38;6.90;99.90
6462;DHT22;3264;42.862;25.098;2023-04-01T00:39:10;6.90;99.90
6462;DHT22;3264;42.862;25.098;2023-04-01T00:41:39;6.90;99.90
6462;DHT22;3264;42.862;25.098;2023-04-01T00:44:18;6.80;99.90
6462;DHT22;3264;42.862;25.098;2023-04-01T00:46:47;6.90;99.90
6462;DHT22;3264;42.862;25.098;2023-04-01T00:49:17;6.90;99.90
6462;DHT22;3264;42.862;25.098;2023-04-01T00:51:50;6.90;99.90
6462;DHT22;3264;42.862;25.098;2023-04-01T00:54:21;6.90;99.90
6462;DHT22;3264;42.862;25.098;2023-04-01T00:56:52;7.00;99.90
6462;DHT22;3264;42.862;25.098;2023-04-01T00:59:25;6.90;99.90
6462;DHT22;3264;42.862;25.098;2023-04-01T01:01:56;6.90;99.90
6462;DHT22;3264;42.862;25.098;2023-04-01T01:04:26;6.80;99.90
6462;DHT22;3264;42.862;25.098;2023-04-01T01:07:30;6.70;99.90
6462;DHT22;3264;42.862;25.098;2023-04-01T01:10:08;6.70;99.90
6462;DHT22;3264;42.862;25.098;2023-04-01T01:12:44;6.80;99.90
6462;DHT22;3264;42.862;25.098;2023-04-01T01:15:17;6.90;99.90
6462;DHT22;3264;42.862;25.098;2023-04-01T01:17:55;6.80;99.90
6462;DHT22;3264;42.862;25.098;2023-04-01T01:20:48;6.80;99.90
6462;DHT22;3264;42.862;25.098;2023-04-01T01:26:39;6.80;99.90
6462;DHT22;3264;42.862;25.098;2023-04-01T01:29:31;6.80;99.90
6462;DHT22;3264;42.862;25.098;2023-04-01T01:32:20;6.80;99.90
6462;DHT22;3264;42.862;25.098;2023-04-01T01:35:16;6.70;99.90
6462;DHT22;3264;42.862;25.098;2023-04-01T01:37:50;6.80;99.90
6462;DHT22;3264;42.862;25.098;2023-04-01T01:40:19;6.80;99.90
6462;DHT22;3264;42.862;25.098;2023-04-01T01:42:53;6.80;99.90
6462;DHT22;3264;42.862;25.098;2023-04-01T01:45:24;6.80;99.90
6462;DHT22;3264;42.862;25.098;2023-04-01T01:47:55;6.60;99.90
6462;DHT22;3264;42.862;25.098;2023-04-01T01:50:26;6.50;99.90
6462;DHT22;3264;42.862;25.098;2023-04-01T01:53:02;6.30;99.90
6462;DHT22;3264;42.862;25.098;2023-04-01T01:55:32;6.20;99.90
6462;DHT22;3264;42.862;25.098;2023-04-01T01:58:05;6.20;99.90
6462;DHT22;3264;42.862;25.098;2023-04-01T02:00:35;6.20;99.90
6462;DHT22;3264;42.862;25.098;2023-04-01T02:03:05;6.30;99.90
6462;DHT22;3264;42.862;25.098;2023-04-01T02:05:35;6.30;99.90
6462;DHT22;3264;42.862;25.098;2023-04-01T02:08:07;6.30;99.90
6462;DHT22;3264;42.862;25.098;2023-04-01T02:10:40;6.40;99.90
6462;DHT22;3264;42.862;25.098;2023-04-01T02:13:17;6.50;99.90
6462;DHT22;3264;42.862;25.098;2023-04-01T02:15:47;6.50;99.90
6462;DHT22;3264;42.862;25.098;2023-04-01T02:18:19;6.40;99.90
6462;DHT22;3264;42.862;25.098;2023-04-01T02:20:50;6.50;99.90
6462;DHT22;3264;42.862;25.098;2023-04-01T02:23:20;6.60;99.90
6462;DHT22;3264;42.862;25.098;2023-04-01T02:25:49;6.60;99.90
6462;DHT22;3264;42.862;25.098;2023-04-01T02:28:19;6.40;99.90
6462;DHT22;3264;42.862;25.098;2023-04-01T02:30:50;6.40;99.90
6462;DHT22;3264;42.862;25.098;2023-04-01T02:33:20;6.50;99.90
6462;DHT22;3264;42.862;25.098;2023-04-01T02:35:51;6.50;99.90
6462;DHT22;3264;42.862;25.098;2023-04-01T02:38:19;6.30;99.90
6462;DHT22;3264;42.862;25.098;2023-04-01T02:40:49;6.40;99.90
6462;DHT22;3264;42.862;25.098;2023-04-01T02:43:18;6.30;99.90
6462;DHT22;3264;42.862;25.098;2023-04-01T02:45:47;6.20;99.90
6462;DHT22;3264;42.862;25.098;2023-04-01T02:48:16;6.20;99.90
6462;DHT22;3264;42.862;25.098;2023-04-01T02:50:44;6.30;99.90
6462;DHT22;3264;42.862;25.098;2023-04-01T02:53:14;6.30;99.90
6462;DHT22;3264;42.862;25.098;2023-04-01T02:55:42;6.30;99.90
6462;DHT22;3264;42.862;25.098;2023-04-01T02:58:12;6.30;99.90
6462;DHT22;3264;42.862;25.098;2023-04-01T03:00:40;6.40;99.90
6462;DHT22;3264;42.862;25.098;2023-04-01T03:03:09;6.30;99.90
6462;DHT22;3264;42.862;25.098;2023-04-01T03:05:38;6.40;99.90
6462;DHT22;3264;42.862;25.098;2023-04-01T03:08:08;6.40;99.90
6462;DHT22;3264;42.862;25.098;2023-04-01T03:10:37;6.50;99.90
6462;DHT22;3264;42.862;25.098;2023-04-01T03:13:07;6.70;99.90
6462;DHT22;3264;42.862;25.098;2023-04-01T03:15:35;6.60;99.90
6462;DHT22;3264;42.862;25.098;2023-04-01T03:18:03;6.60;99.90
6462;DHT22;3264;42.862;25.098;2023-04-01T03:20:31;6.60;99.90
6462;DHT22;3264;42.862;25.098;2023-04-01T03:22:58;6.40;99.90
6462;DHT22;3264;42.862;25.098;2023-04-01T03:25:28;6.40;99.90
6462;DHT22;3264;42.862;25.098;2023-04-01T03:27:58;6.50;99.90
6462;DHT22;3264;42.862;25.098;2023-04-01T03:30:26;6.50;99.90
6462;DHT22;3264;42.862;25.098;2023-04-01T03:32:55;6.70;99.90
6462;DHT22;3264;42.862;25.098;2023-04-01T03:35:23;6.70;99.90
6462;DHT22;3264;42.862;25.098;2023-04-01T03:37:53;6.70;99.90
6462;DHT22;3264;42.862;25.098;2023-04-01T03:40:21;6.60;99.90
6462;DHT22;3264;42.862;25.098;2023-04-01T03:42:50;6.60;99.90
6462;DHT22;3264;42.862;25.098;2023-04-01T03:45:21;6.50;99.90
6462;DHT22;3264;42.862;25.098;2023-04-01T03:47:50;6.30;99.90
6462;DHT22;3264;42.862;25.098;2023-04-01T03:50:17;6.30;99.90
6462;DHT22;3264;42.862;25.098;2023-04-01T03:52:47;6.40;99.90
6462;DHT22;3264;42.862;25.098;2023-04-01T03:55:15;6.50;99.90
6462;DHT22;3264;42.862;25.098;2023-04-01T03:57:45;6.50;99.90
6462;DHT22;3264;42.862;25.098;2023-04-01T04:00:13;6.60;99.90
6462;DHT22;3264;42.862;25.098;2023-04-01T04:02:42;6.70;99.90
6462;DHT22;3264;42.862;25.098;2023-04-01T04:05:10;6.70;99.90
6462;DHT22;3264;42.862;25.098;2023-04-01T04:07:40;6.80;99.90
6462;DHT22;3264;42.862;25.098;2023-04-01T04:10:09;6.80;99.90
6462;DHT22;3264;42.862;25.098;2023-04-01T04:12:37;6.90;99.90
6462;DHT22;3264;42.862;25.098;2023-04-01T04:15:06;7.00;99.90
6462;DHT22;3264;42.862;25.098;2023-04-01T04:17:36;7.00;99.90
6462;DHT22;3264;42.862;25.098;2023-04-01T04:20:08;7.00;99.90
6462;DHT22;3264;42.862;25.098;2023-04-01T04:22:35;7.00;99.90
6462;DHT22;3264;42.862;25.098;2023-04-01T04:25:05;6.90;99.90
6462;DHT22;3264;42.862;25.098;2023-04-01T04:27:35;6.80;99.90
6462;DHT22;3264;42.862;25.098;2023-04-01T04:30:06;6.90;99.90
6462;DHT22;3264;42.862;25.098;2023-04-01T04:32:34;7.10;99.90
6462;DHT22;3264;42.862;25.098;2023-04-01T04:35:06;7.30;99.90
6462;DHT22;3264;42.862;25.098;2023-04-01T04:37:33;7.40;99.90
6462;DHT22;3264;42.862;25.098;2023-04-01T04:40:01;7.40;99.90
6462;DHT22;3264;42.862;25.098;2023-04-01T04:42:38;7.20;99.90
6462;DHT22;3264;42.862;25.098;2023-04-01T04:45:06;7.10;99.90
6462;DHT22;3264;42.862;25.098;2023-04-01T04:47:36;7.20;99.90
6462;DHT22;3264;42.862;25.098;2023-04-01T04:50:04;7.40;99.90
6462;DHT22;3264;42.862;25.098;2023-04-01T04:52:33;7.50;99.90
6462;DHT22;3264;42.862;25.098;2023-04-01T04:55:01;7.70;99.90
6462;DHT22;3264;42.862;25.098;2023-04-01T04:57:30;7.90;99.90
6462;DHT22;3264;42.862;25.098;2023-04-01T04:59:58;8.00;99.90
6462;DHT22;3264;42.862;25.098;2023-04-01T05:02:25;8.10;99.90
6462;DHT22;3264;42.862;25.098;2023-04-01T05:04:55;8.10;99.90
6462;DHT22;3264;42.862;25.098;2023-04-01T05:07:25;8.20;99.90
6462;DHT22;3264;42.862;25.098;2023-04-01T05:09:54;8.20;99.90
6462;DHT22;3264;42.862;25.098;2023-04-01T05:12:23;8.30;99.90
6462;DHT22;3264;42.862;25.098;2023-04-01T05:14:52;8.40;99.90
6462;DHT22;3264;42.862;25.098;2023-04-01T05:17:20;8.40;99.90
6462;DHT22;3264;42.862;25.098;2023-04-01T05:19:48;8.50;99.90
6462;DHT22;3264;42.862;25.098;2023-04-01T05:22:16;8.60;99.90
6462;DHT22;3264;42.862;25.098;2023-04-01T05:24:45;8.80;99.90
6462;DHT22;3264;42.862;25.098;2023-04-01T05:27:15;8.60;99.90
6462;DHT22;3264;42.862;25.098;2023-04-01T05:29:44;8.40;99.90
6462;DHT22;3264;42.862;25.098;2023-04-01T05:32:12;8.40;99.90
6462;DHT22;3264;42.862;25.098;2023-04-01T05:34:42;8.40;99.90
6462;DHT22;3264;42.862;25.098;2023-04-01T05:37:11;8.60;99.90
6462;DHT22;3264;42.862;25.098;2023-04-01T05:39:39;8.50;99.90
6462;DHT22;3264;42.862;25.098;2023-04-01T05:42:08;8.60;99.90
6462;DHT22;3264;42.862;25.098;2023-04-01T05:44:38;8.70;99.90
6462;DHT22;3264;42.862;25.098;2023-04-01T05:47:07;8.70;99.90
6462;DHT22;3264;42.862;25.098;2023-04-01T05:49:35;8.90;99.90
6462;DHT22;3264;42.862;25.098;2023-04-01T05:52:04;8.80;99.90
6462;DHT22;3264;42.862;25.098;2023-04-01T05:54:32;8.80;99.90
6462;DHT22;3264;42.862;25.098;2023-04-01T05:57:01;8.90;99.90
6462;DHT22;3264;42.862;25.098;2023-04-01T05:59:31;9.00;99.90
6462;DHT22;3264;42.862;25.098;2023-04-01T06:02:02;9.10;99.90
6462;DHT22;3264;42.862;25.098;2023-04-01T06:04:35;9.10;99.90
6462;DHT22;3264;42.862;25.098;2023-04-01T06:07:11;9.20;99.90
6462;DHT22;3264;42.862;25.098;2023-04-01T06:09:41;9.30;99.90
6462;DHT22;3264;42.862;25.098;2023-04-01T06:15:08;9.30;99.90
6462;DHT22;3264;42.862;25.098;2023-04-01T06:17:55;9.50;99.90
6462;DHT22;3264;42.862;25.098;2023-04-01T06:20:32;9.50;99.90
6462;DHT22;3264;42.862;25.098;2023-04-01T06:23:23;9.30;99.90
6462;DHT22;3264;42.862;25.098;2023-04-01T06:26:12;9.30;99.90
6462;DHT22;3264;42.862;25.098;2023-04-01T06:29:11;9.40;99.90
6462;DHT22;3264;42.862;25.098;2023-04-01T06:35:08;9.60;99.90
6462;DHT22;3264;42.862;25.098;2023-04-01T06:37:51;9.50;99.90
6462;DHT22;3264;42.862;25.098;2023-04-01T06:43:17;10.10;99.90
6462;DHT22;3264;42.862;25.098;2023-04-01T06:45:54;10.10;99.90
6462;DHT22;3264;42.862;25.098;2023-04-01T06:48:38;10.20;99.90
6462;DHT22;3264;42.862;25.098;2023-04-01T06:51:20;10.40;99.90
6462;DHT22;3264;42.862;25.098;2023-04-01T06:53:55;10.60;99.90
6462;DHT22;3264;42.862;25.098;2023-04-01T06:56:27;10.70;99.90
6462;DHT22;3264;42.862;25.098;2023-04-01T06:58:59;10.80;99.90
6462;DHT22;3264;42.862;25.098;2023-04-01T07:01:32;11.20;99.90
6462;DHT22;3264;42.862;25.098;2023-04-01T07:04:11;11.50;99.90
6462;DHT22;3264;42.862;25.098;2023-04-01T07:06:48;11.80;99.90
6462;DHT22;3264;42.862;25.098;2023-04-01T07:09:22;12.00;99.90
6462;DHT22;3264;42.862;25.098;2023-04-01T07:11:54;12.40;99.90
6462;DHT22;3264;42.862;25.098;2023-04-01T07:14:28;12.60;99.90
6462;DHT22;3264;42.862;25.098;2023-04-01T07:16:59;12.70;99.90
6462;DHT22;3264;42.862;25.098;2023-04-01T07:19:56;12.90;99.90
6462;DHT22;3264;42.862;25.098;2023-04-01T07:22:31;12.60;99.90
6462;DHT22;3264;42.862;25.098;2023-04-01T07:25:11;12.90;99.90
6462;DHT22;3264;42.862;25.098;2023-04-01T07:27:42;13.20;99.80
6462;DHT22;3264;42.862;25.098;2023-04-01T07:30:14;13.60;98.80
6462;DHT22;3264;42.862;25.098;2023-04-01T07:32:45;13.80;96.90
6462;DHT22;3264;42.862;25.098;2023-04-01T07:35:25;14.00;96.80
6462;DHT22;3264;42.862;25.098;2023-04-01T07:38:09;14.20;95.20
6462;DHT22;3264;42.862;25.098;2023-04-01T07:40:46;14.50;94.10
6462;DHT22;3264;42.862;25.098;2023-04-01T07:43:44;15.20;95.00
6462;DHT22;3264;42.862;25.098;2023-04-01T07:46:28;15.70;91.50
6462;DHT22;3264;42.862;25.098;2023-04-01T07:49:06;16.00;89.10
6462;DHT22;3264;42.862;25.098;2023-04-01T07:51:40;16.40;90.10
6462;DHT22;3264;42.862;25.098;2023-04-01T07:54:16;16.50;90.50
6462;DHT22;3264;42.862;25.098;2023-04-01T07:56:51;16.90;89.00
6462;DHT22;3264;42.862;25.098;2023-04-01T07:59:26;16.70;88.00
6462;DHT22;3264;42.862;25.098;2023-04-01T08:02:05;16.90;82.50
6462;DHT22;3264;42.862;25.098;2023-04-01T08:04:46;17.30;81.70
6462;DHT22;3264;42.862;25.098;2023-04-01T08:07:20;17.10;82.50
6462;DHT22;3264;42.862;25.098;2023-04-01T08:09:58;17.30;79.80
6462;DHT22;3264;42.862;25.098;2023-04-01T08:12:37;17.40;81.20
6462;DHT22;3264;42.862;25.098;2023-04-01T08:15:19;17.10;79.90
6462;DHT22;3264;42.862;25.098;2023-04-01T08:17:59;17.10;78.40
6462;DHT22;3264;42.862;25.098;2023-04-01T08:20:37;17.20;78.10
6462;DHT22;3264;42.862;25.098;2023-04-01T08:23:13;17.00;76.20
6462;DHT22;3264;42.862;25.098;2023-04-01T08:25:50;17.10;76.30
6462;DHT22;3264;42.862;25.098;2023-04-01T08:28:24;17.00;75.00
6462;DHT22;3264;42.862;25.098;2023-04-01T08:30:57;17.00;75.50
6462;DHT22;3264;42.862;25.098;2023-04-01T08:33:30;17.00;73.20
6462;DHT22;3264;42.862;25.098;2023-04-01T08:36:05;16.80;75.50
6462;DHT22;3264;42.862;25.098;2023-04-01T08:38:39;16.70;75.10
6462;DHT22;3264;42.862;25.098;2023-04-01T08:41:35;16.50;75.60
6462;DHT22;3264;42.862;25.098;2023-04-01T08:47:44;16.30;75.00
6462;DHT22;3264;42.862;25.098;2023-04-01T08:50:40;16.20;76.80
6462;DHT22;3264;42.862;25.098;2023-04-01T08:53:21;16.10;76.00
6462;DHT22;3264;42.862;25.098;2023-04-01T08:56:06;16.10;77.40
6462;DHT22;3264;42.862;25.098;2023-04-01T08:58:59;16.00;79.20
6462;DHT22;3264;42.862;25.098;2023-04-01T09:01:55;15.90;79.40
6462;DHT22;3264;42.862;25.098;2023-04-01T09:07:28;16.00;82.00
6462;DHT22;3264;42.862;25.098;2023-04-01T09:13:31;16.30;81.90
6462;DHT22;3264;42.862;25.098;2023-04-01T09:16:18;16.40;79.40
6462;DHT22;3264;42.862;25.098;2023-04-01T09:28:08;16.40;76.60
6462;DHT22;3264;42.862;25.098;2023-04-01T09:31:09;16.30;76.00
6462;DHT22;3264;42.862;25.098;2023-04-01T09:34:10;16.30;75.90
6462;DHT22;3264;42.862;25.098;2023-04-01T09:36:46;16.10;74.70
6462;DHT22;3264;42.862;25.098;2023-04-01T09:39:30;16.10;75.50
6462;DHT22;3264;42.862;25.098;2023-04-01T09:42:40;16.20;74.90
6462;DHT22;3264;42.862;25.098;2023-04-01T09:45:20;16.30;75.60
6462;DHT22;3264;42.862;25.098;2023-04-01T09:48:05;16.20;74.20
6462;DHT22;3264;42.862;25.098;2023-04-01T09:50:46;16.20;75.00
6462;DHT22;3264;42.862;25.098;2023-04-01T09:53:37;16.10;75.90
6462;DHT22;3264;42.862;25.098;2023-04-01T09:56:32;16.30;78.20
6462;DHT22;3264;42.862;25.098;2023-04-01T10:05:59;16.30;77.60
6462;DHT22;3264;42.862;25.098;2023-04-01T10:09:04;16.50;77.00
6462;DHT22;3264;42.862;25.098;2023-04-01T10:18:21;17.60;74.50
6462;DHT22;3264;42.862;25.098;2023-04-01T10:21:18;19.10;72.50
6462;DHT22;3264;42.862;25.098;2023-04-01T10:27:11;19.30;63.90
6462;DHT22;3264;42.862;25.098;2023-04-01T10:30:05;19.10;60.00
6462;DHT22;3264;42.862;25.098;2023-04-01T10:36:20;20.20;58.00
6462;DHT22;3264;42.862;25.098;2023-04-01T10:42:58;23.00;57.80
6462;DHT22;3264;42.862;25.098;2023-04-01T10:46:05;23.10;51.20
6462;DHT22;3264;42.862;25.098;2023-04-01T10:49:06;23.10;50.90
6462;DHT22;3264;42.862;25.098;2023-04-01T10:52:06;23.40;52.00
6462;DHT22;3264;42.862;25.098;2023-04-01T10:54:46;23.70;47.50
6462;DHT22;3264;42.862;25.098;2023-04-01T11:00:36;24.10;45.80
6462;DHT22;3264;42.862;25.098;2023-04-01T11:03:26;23.00;43.70
6462;DHT22;3264;42.862;25.098;2023-04-01T11:06:22;23.50;47.30
6462;DHT22;3264;42.862;25.098;2023-04-01T11:12:23;23.80;46.40
6462;DHT22;3264;42.862;25.098;2023-04-01T11:15:31;24.10;44.50
6462;DHT22;3264;42.862;25.098;2023-04-01T11:21:59;23.90;46.20
6462;DHT22;3264;42.862;25.098;2023-04-01T11:25:19;22.70;46.40
6462;DHT22;3264;42.862;25.098;2023-04-01T11:30:53;24.00;46.40
6462;DHT22;3264;42.862;25.098;2023-04-01T11:33:30;23.90;45.80
6462;DHT22;3264;42.862;25.098;2023-04-01T11:36:21;23.70;46.30
6462;DHT22;3264;42.862;25.098;2023-04-01T11:39:02;23.00;46.60
6462;DHT22;3264;42.862;25.098;2023-04-01T11:41:40;22.80;47.60
6462;DHT22;3264;42.862;25.098;2023-04-01T11:44:17;22.30;46.70
6462;DHT22;3264;42.862;25.098;2023-04-01T11:47:03;21.90;47.60
6462;DHT22;3264;42.862;25.098;2023-04-01T11:49:53;22.10;48.40
6462;DHT22;3264;42.862;25.098;2023-04-01T11:55:42;21.20;46.00
6462;DHT22;3264;42.862;25.098;2023-04-01T11:58:37;20.60;45.30
6462;DHT22;3264;42.862;25.098;2023-04-01T12:01:22;21.20;49.50
6462;DHT22;3264;42.862;25.098;2023-04-01T12:04:26;21.30;48.00
6462;DHT22;3264;42.862;25.098;2023-04-01T12:07:06;21.30;49.00
6462;DHT22;3264;42.862;25.098;2023-04-01T12:09:45;21.30;48.20
6462;DHT22;3264;42.862;25.098;2023-04-01T12:12:22;20.70;47.40
6462;DHT22;3264;42.862;25.098;2023-04-01T12:15:04;20.90;49.00
6462;DHT22;3264;42.862;25.098;2023-04-01T12:17:39;21.00;48.90
6462;DHT22;3264;42.862;25.098;2023-04-01T12:20:28;20.90;49.40
6462;DHT22;3264;42.862;25.098;2023-04-01T12:23:08;20.70;47.80
6462;DHT22;3264;42.862;25.098;2023-04-01T12:29:11;21.00;46.80
6462;DHT22;3264;42.862;25.098;2023-04-01T12:31:50;20.90;45.90
6462;DHT22;3264;42.862;25.098;2023-04-01T12:34:55;21.20;47.10
6462;DHT22;3264;42.862;25.098;2023-04-01T12:37:39;21.10;47.70
6462;DHT22;3264;42.862;25.098;2023-04-01T12:40:28;20.20;47.20
6462;DHT22;3264;42.862;25.098;2023-04-01T12:43:06;20.20;46.70
6462;DHT22;3264;42.862;25.098;2023-04-01T12:45:44;20.70;47.10
6462;DHT22;3264;42.862;25.098;2023-04-01T12:48:41;20.60;46.70
6462;DHT22;3264;42.862;25.098;2023-04-01T12:54:57;20.60;45.50
6462;DHT22;3264;42.862;25.098;2023-04-01T13:01:10;20.50;47.60
6462;DHT22;3264;42.862;25.098;2023-04-01T13:06:44;20.30;48.20
6462;DHT22;3264;42.862;25.098;2023-04-01T13:09:35;20.00;53.40
6462;DHT22;3264;42.862;25.098;2023-04-01T13:12:29;19.60;55.90
6462;DHT22;3264;42.862;25.098;2023-04-01T13:15:21;19.30;57.40
6462;DHT22;3264;42.862;25.098;2023-04-01T13:17:54;18.70;59.80
6462;DHT22;3264;42.862;25.098;2023-04-01T13:20:34;18.50;62.30
6462;DHT22;3264;42.862;25.098;2023-04-01T13:23:14;18.40;63.60
6462;DHT22;3264;42.862;25.098;2023-04-01T13:25:50;18.30;64.30
6462;DHT22;3264;42.862;25.098;2023-04-01T13:28:25;18.00;66.20
6462;DHT22;3264;42.862;25.098;2023-04-01T13:31:01;17.80;67.50
6462;DHT22;3264;42.862;25.098;2023-04-01T13:33:40;17.50;69.10
6462;DHT22;3264;42.862;25.098;2023-04-01T13:36:19;17.30;70.60
6462;DHT22;3264;42.862;25.098;2023-04-01T13:39:09;17.10;73.30
6462;DHT22;3264;42.862;25.098;2023-04-01T13:41:59;16.90;76.00
6462;DHT22;3264;42.862;25.098;2023-04-01T13:44:34;16.80;78.60
6462;DHT22;3264;42.862;25.098;2023-04-01T13:50:19;16.40;82.20
6462;DHT22;3264;42.862;25.098;2023-04-01T13:53:21;16.00;89.80
6462;DHT22;3264;42.862;25.098;2023-04-01T13:59:21;15.60;97.40
6462;DHT22;3264;42.862;25.098;2023-04-01T14:01:59;14.90;99.90
6462;DHT22;3264;42.862;25.098;2023-04-01T14:04:50;14.70;99.90
6462;DHT22;3264;42.862;25.098;2023-04-01T14:07:45;14.50;99.90
6462;DHT22;3264;42.862;25.098;2023-04-01T14:10:28;14.00;99.90
6462;DHT22;3264;42.862;25.098;2023-04-01T14:13:06;13.80;99.90
6462;DHT22;3264;42.862;25.098;2023-04-01T14:15:50;13.00;99.90
6462;DHT22;3264;42.862;25.098;2023-04-01T14:18:39;12.90;99.90
6462;DHT22;3264;42.862;25.098;2023-04-01T14:21:21;12.50;99.90
6462;DHT22;3264;42.862;25.098;2023-04-01T14:24:03;12.40;99.90
6462;DHT22;3264;42.862;25.098;2023-04-01T14:27:11;12.30;99.90
6462;DHT22;3264;42.862;25.098;2023-04-01T14:29:57;12.20;99.90
6462;DHT22;3264;42.862;25.098;2023-04-01T14:32:43;12.10;99.90
6462;DHT22;3264;42.862;25.098;2023-04-01T14:35:25;12.20;99.90
6462;DHT22;3264;42.862;25.098;2023-04-01T14:40:56;12.10;99.90
6462;DHT22;3264;42.862;25.098;2023-04-01T14:43:58;12.20;99.90
6462;DHT22;3264;42.862;25.098;2023-04-01T14:49:40;12.20;99.90
6462;DHT22;3264;42.862;25.098;2023-04-01T14:52:13;12.10;99.90
6462;DHT22;3264;42.862;25.098;2023-04-01T14:54:44;12.10;99.90
6462;DHT22;3264;42.862;25.098;2023-04-01T14:57:16;12.40;99.90
6462;DHT22;3264;42.862;25.098;2023-04-01T14:59:54;12.70;99.90
6462;DHT22;3264;42.862;25.098;2023-04-01T15:02:37;13.00;99.90
6462;DHT22;3264;42.862;25.098;2023-04-01T15:05:23;13.10;99.90
6462;DHT22;3264;42.862;25.098;2023-04-01T15:08:15;13.10;99.90
6462;DHT22;3264;42.862;25.098;2023-04-01T15:11:12;12.80;99.90
6462;DHT22;3264;42.862;25.098;2023-04-01T15:14:10;12.70;99.90
6462;DHT22;3264;42.862;25.098;2023-04-01T15:16:50;12.60;99.90
6462;DHT22;3264;42.862;25.098;2023-04-01T15:19:28;12.60;99.90
6462;DHT22;3264;42.862;25.098;2023-04-01T15:25:31;13.20;99.90
6462;DHT22;3264;42.862;25.098;2023-04-01T15:28:08;13.50;99.90
6462;DHT22;3264;42.862;25.098;2023-04-01T15:30:47;13.40;99.90
6462;DHT22;3264;42.862;25.098;2023-04-01T15:33:49;13.10;99.90
6462;DHT22;3264;42.862;25.098;2023-04-01T15:36:30;13.20;99.90
6462;DHT22;3264;42.862;25.098;2023-04-01T15:39:09;13.50;99.90
6462;DHT22;3264;42.862;25.098;2023-04-01T15:41:46;13.60;99.90
6462;DHT22;3264;42.862;25.098;2023-04-01T15:44:48;13.20;99.90
6462;DHT22;3264;42.862;25.098;2023-04-01T15:47:34;13.20;99.90
6462;DHT22;3264;42.862;25.098;2023-04-01T15:53:30;13.50;99.90
6462;DHT22;3264;42.862;25.098;2023-04-01T15:56:16;13.60;99.90
6462;DHT22;3264;42.862;25.098;2023-04-01T15:58:54;13.10;99.90
6462;DHT22;3264;42.862;25.098;2023-04-01T16:01:36;12.80;99.90
6462;DHT22;3264;42.862;25.098;2023-04-01T16:04:21;12.70;99.90
6462;DHT22;3264;42.862;25.098;2023-04-01T16:07:09;12.50;99.90
6462;DHT22;3264;42.862;25.098;2023-04-01T16:12:51;12.00;99.90
6462;DHT22;3264;42.862;25.098;2023-04-01T16:15:26;11.70;99.90
6462;DHT22;3264;42.862;25.098;2023-04-01T16:18:22;11.70;99.90
6462;DHT22;3264;42.862;25.098;2023-04-01T16:20:57;11.60;99.90
6462;DHT22;3264;42.862;25.098;2023-04-01T16:23:36;11.50;99.90
6462;DHT22;3264;42.862;25.098;2023-04-01T16:26:18;11.50;99.90
6462;DHT22;3264;42.862;25.098;2023-04-01T16:28:54;11.50;99.90
6462;DHT22;3264;42.862;25.098;2023-04-01T16:31:32;11.30;99.90
6462;DHT22;3264;42.862;25.098;2023-04-01T16:34:10;11.20;99.90
6462;DHT22;3264;42.862;25.098;2023-04-01T16:36:48;11.10;99.90
6462;DHT22;3264;42.862;25.098;2023-04-01T16:39:30;11.10;99.90
6462;DHT22;3264;42.862;25.098;2023-04-01T16:42:20;11.10;99.90
6462;DHT22;3264;42.862;25.098;2023-04-01T16:44:54;10.90;99.90
6462;DHT22;3264;42.862;25.098;2023-04-01T16:47:31;10.70;99.90
6462;DHT22;3264;42.862;25.098;2023-04-01T16:50:14;10.60;99.90
6462;DHT22;3264;42.862;25.098;2023-04-01T16:52:57;10.70;99.90
6462;DHT22;3264;42.862;25.098;2023-04-01T16:55:40;10.60;99.90
6462;DHT22;3264;42.862;25.098;2023-04-01T16:58:18;10.70;99.90
6462;DHT22;3264;42.862;25.098;2023-04-01T17:00:50;10.60;99.90
6462;DHT22;3264;42.862;25.098;2023-04-01T17:03:26;10.50;99.90
6462;DHT22;3264;42.862;25.098;2023-04-01T17:06:19;10.50;99.90
6462;DHT22;3264;42.862;25.098;2023-04-01T17:09:11;10.40;99.90
6462;DHT22;3264;42.862;25.098;2023-04-01T17:11:47;10.30;99.90
6462;DHT22;3264;42.862;25.098;2023-04-01T17:14:25;10.20;99.90
6462;DHT22;3264;42.862;25.098;2023-04-01T17:17:12;10.10;99.90
6462;DHT22;3264;42.862;25.098;2023-04-01T17:19:53;10.10;99.90
6462;DHT22;3264;42.862;25.098;2023-04-01T17:22:32;10.10;99.90
6462;DHT22;3264;42.862;25.098;2023-04-01T17:25:25;10.20;99.90
6462;DHT22;3264;42.862;25.098;2023-04-01T17:27:59;10.20;99.90
6462;DHT22;3264;42.862;25.098;2023-04-01T17:30:55;10.10;99.90
6462;DHT22;3264;42.862;25.098;2023-04-01T17:33:37;9.90;99.90
6462;DHT22;3264;42.862;25.098;2023-04-01T17:36:13;9.80;99.90
6462;DHT22;3264;42.862;25.098;2023-04-01T17:38:59;9.80;99.90
6462;DHT22;3264;42.862;25.098;2023-04-01T17:41:41;9.80;99.90
6462;DHT22;3264;42.862;25.098;2023-04-01T17:44:20;9.80;99.90
6462;DHT22;3264;42.862;25.098;2023-04-01T17:47:07;9.90;99.90
6462;DHT22;3264;42.862;25.098;2023-04-01T17:49:45;9.90;99.90
6462;DHT22;3264;42.862;25.098;2023-04-01T17:52:24;9.80;99.90
6462;DHT22;3264;42.862;25.098;2023-04-01T17:54:59;10.00;99.90
6462;DHT22;3264;42.862;25.098;2023-04-01T17:57:43;9.90;99.90
6462;DHT22;3264;42.862;25.098;2023-04-01T18:00:19;10.00;99.90
6462;DHT22;3264;42.862;25.098;2023-04-01T18:03:01;10.00;99.90
6462;DHT22;3264;42.862;25.098;2023-04-01T18:05:51;9.90;99.90
6462;DHT22;3264;42.862;25.098;2023-04-01T18:08:41;10.00;99.90
6462;DHT22;3264;42.862;25.098;2023-04-01T18:11:20;10.00;99.90
6462;DHT22;3264;42.862;25.098;2023-04-01T18:14:18;9.70;99.90
6462;DHT22;3264;42.862;25.098;2023-04-01T18:17:06;9.50;99.90
6462;DHT22;3264;42.862;25.098;2023-04-01T18:19:50;9.60;99.90
6462;DHT22;3264;42.862;25.098;2023-04-01T18:22:26;9.70;99.90
6462;DHT22;3264;42.862;25.098;2023-04-01T18:25:02;9.70;99.90
6462;DHT22;3264;42.862;25.098;2023-04-01T18:27:39;9.70;99.90
6462;DHT22;3264;42.862;25.098;2023-04-01T18:30:15;9.70;99.90
6462;DHT22;3264;42.862;25.098;2023-04-01T18:32:50;9.60;99.90
6462;DHT22;3264;42.862;25.098;2023-04-01T18:35:28;9.70;99.90
6462;DHT22;3264;42.862;25.098;2023-04-01T18:38:03;9.70;99.90
6462;DHT22;3264;42.862;25.098;2023-04-01T18:40:45;9.60;99.90
6462;DHT22;3264;42.862;25.098;2023-04-01T18:43:22;9.50;99.90
6462;DHT22;3264;42.862;25.098;2023-04-01T18:46:09;9.50;99.90
6462;DHT22;3264;42.862;25.098;2023-04-01T18:48:51;9.50;99.90
6462;DHT22;3264;42.862;25.098;2023-04-01T18:51:36;9.30;99.90